sensor_id;sensor_type;location;lat;lon;timestamp;P1;durP1;ratioP1;P2;durP2;ratioP2
24102;SDS011;12278;53.058;9.028;2023-07-20T04:02:13;1.85;;;1.73;;
24102;SDS011;12278;53.058;9.028;2023-07-20T04:06:14;2.10;;;1.63;;
24102;SDS011;12278;53.058;9.028;2023-07-20T04:10:17;1.70;;;1.60;;
24102;SDS011;12278;53.058;9.028;2023-07-20T04:14:18;3.03;;;1.90;;
24102;SDS011;12278;53.058;9.028;2023-07-20T04:18:18;3.03;;;1.90;;
24102;SDS011;12278;53.058;9.028;2023-07-20T04:22:19;3.78;;;2.30;;
24102;SDS011;12278;53.058;9.028;2023-07-20T04:26:20;3.15;;;2.53;;
24102;SDS011;12278;53.058;9.028;2023-07-20T04:30:20;3.75;;;2.22;;
24102;SDS011;12278;53.058;9.028;2023-07-20T04:34:22;3.38;;;2.70;;
24102;SDS011;12278;53.058;9.028;2023-07-20T04:38:23;4.05;;;2.50;;
24102;SDS011;12278;53.058;9.028;2023-07-20T04:42:24;3.83;;;3.10;;
24102;SDS011;12278;53.058;9.028;2023-07-20T04:46:24;4.35;;;3.15;;
24102;SDS011;12278;53.058;9.028;2023-07-20T04:50:25;4.35;;;3.30;;
24102;SDS011;12278;53.058;9.028;2023-07-20T04:54:25;4.00;;;3.25;;
24102;SDS011;12278;53.058;9.028;2023-07-20T04:58:27;3.88;;;3.25;;
24102;SDS011;12278;53.058;9.028;2023-07-20T05:02:27;5.68;;;4.18;;
24102;SDS011;12278;53.058;9.028;2023-07-20T05:06:28;5.90;;;4.03;;
24102;SDS011;12278;53.058;9.028;2023-07-20T05:10:29;3.53;;;3.20;;
24102;SDS011;12278;53.058;9.028;2023-07-20T05:14:29;4.57;;;4.18;;
24102;SDS011;12278;53.058;9.028;2023-07-20T05:18:30;5.63;;;4.10;;
24102;SDS011;12278;53.058;9.028;2023-07-20T05:22:31;3.67;;;3.38;;
24102;SDS011;12278;53.058;9.028;2023-07-20T05:26:32;6.07;;;3.92;;
24102;SDS011;12278;53.058;9.028;2023-07-20T05:30:33;6.53;;;3.83;;
24102;SDS011;12278;53.058;9.028;2023-07-20T05:34:33;4.68;;;3.38;;
24102;SDS011;12278;53.058;9.028;2023-07-20T05:38:34;3.30;;;2.97;;
24102;SDS011;12278;53.058;9.028;2023-07-20T05:42:35;4.90;;;3.53;;
24102;SDS011;12278;53.058;9.028;2023-07-20T05:46:35;4.20;;;3.33;;
24102;SDS011;12278;53.058;9.028;2023-07-20T05:50:36;3.75;;;2.72;;
24102;SDS011;12278;53.058;9.028;2023-07-20T05:54:37;3.45;;;2.75;;
24102;SDS011;12278;53.058;9.028;2023-07-20T05:58:38;2.00;;;1.80;;
24102;SDS011;12278;53.058;9.028;2023-07-20T06:02:39;2.20;;;2.00;;
24102;SDS011;12278;53.058;9.028;2023-07-20T06:06:40;3.50;;;2.10;;
24102;SDS011;12278;53.058;9.028;2023-07-20T06:10:41;2.25;;;1.67;;
24102;SDS011;12278;53.058;9.028;2023-07-20T06:14:41;2.13;;;1.92;;
24102;SDS011;12278;53.058;9.028;2023-07-20T06:18:42;2.58;;;1.50;;
24102;SDS011;12278;53.058;9.028;2023-07-20T06:22:44;2.78;;;1.58;;
24102;SDS011;12278;53.058;9.028;2023-07-20T06:26:44;2.42;;;1.90;;
24102;SDS011;12278;53.058;9.028;2023-07-20T06:30:45;3.90;;;1.55;;
24102;SDS011;12278;53.058;9.028;2023-07-20T06:34:46;2.20;;;1.17;;
24102;SDS011;12278;53.058;9.028;2023-07-20T06:38:47;1.80;;;1.10;;
24102;SDS011;12278;53.058;9.028;2023-07-20T06:42:47;2.10;;;1.38;;
24102;SDS011;12278;53.058;9.028;2023-07-20T06:46:48;2.30;;;1.42;;
24102;SDS011;12278;53.058;9.028;2023-07-20T06:50:48;1.27;;;1.17;;
24102;SDS011;12278;53.058;9.028;2023-07-20T06:54:49;3.00;;;1.35;;
24102;SDS011;12278;53.058;9.028;2023-07-20T06:58:50;0.80;;;0.80;;
24102;SDS011;12278;53.058;9.028;2023-07-20T07:02:50;1.50;;;1.00;;
24102;SDS011;12278;53.058;9.028;2023-07-20T07:06:51;0.85;;;0.85;;
24102;SDS011;12278;53.058;9.028;2023-07-20T07:10:52;1.38;;;0.77;;
24102;SDS011;12278;53.058;9.028;2023-07-20T07:14:52;1.25;;;0.43;;
24102;SDS011;12278;53.058;9.028;2023-07-20T07:18:53;0.80;;;0.80;;
24102;SDS011;12278;53.058;9.028;2023-07-20T07:22:54;0.80;;;0.80;;
24102;SDS011;12278;53.058;9.028;2023-07-20T07:26:57;0.80;;;0.80;;
24102;SDS011;12278;53.058;9.028;2023-07-20T07:30:57;3.85;;;1.13;;
24102;SDS011;12278;53.058;9.028;2023-07-20T07:34:58;1.05;;;0.98;;
24102;SDS011;12278;53.058;9.028;2023-07-20T07:39:00;2.53;;;1.42;;
24102;SDS011;12278;53.058;9.028;2023-07-20T07:43:01;1.38;;;1.05;;
24102;SDS011;12278;53.058;9.028;2023-07-20T07:47:01;1.15;;;0.95;;
24102;SDS011;12278;53.058;9.028;2023-07-20T07:51:02;3.70;;;1.60;;
24102;SDS011;12278;53.058;9.028;2023-07-20T07:55:03;2.45;;;1.50;;
24102;SDS011;12278;53.058;9.028;2023-07-20T07:59:04;2.03;;;0.93;;
24102;SDS011;12278;53.058;9.028;2023-07-20T08:03:08;1.73;;;0.90;;
24102;SDS011;12278;53.058;9.028;2023-07-20T08:07:08;0.73;;;0.73;;
24102;SDS011;12278;53.058;9.028;2023-07-20T08:11:09;3.10;;;1.00;;
24102;SDS011;12278;53.058;9.028;2023-07-20T08:15:10;4.40;;;0.85;;
24102;SDS011;12278;53.058;9.028;2023-07-20T08:19:12;1.70;;;1.25;;
24102;SDS011;12278;53.058;9.028;2023-07-20T08:23:14;2.05;;;0.77;;
24102;SDS011;12278;53.058;9.028;2023-07-20T08:27:14;2.83;;;1.55;;
24102;SDS011;12278;53.058;9.028;2023-07-20T08:31:15;1.98;;;1.40;;
24102;SDS011;12278;53.058;9.028;2023-07-20T08:35:16;2.90;;;0.90;;
